Time;durP1;ratioP1;P1;durP2;ratioP2;P2;SDS_P1;SDS_P2;PMS_P1;PMS_P2;Temp;Humidity;BMP_temperature;BMP_pressure;BME280_temperature;BME280_humidity;BME280_pressure;Samples;Min_cycle;Max_cycle;Signal;HPM_P1;HPM_P2
2022/12/25 00:00:26;;;;;;;35.70;12.15;;;;;;;6.13;100.00;101283.94;6206452;23;20083;-87
2022/12/25 00:02:52;;;;;;;32.22;11.48;;;;;;;6.14;100.00;101279.53;6212859;23;20008;-86
2022/12/25 00:05:17;;;;;;;31.08;11.35;;;;;;;6.13;100.00;101278.66;6227223;23;20008;-87
2022/12/25 00:07:42;;;;;;;32.00;12.18;;;;;;;6.15;100.00;101278.66;6222689;23;20015;-86
2022/12/25 00:10:08;;;;;;;33.05;12.15;;;;;;;6.19;100.00;101275.88;6215430;23;20017;-86
2022/12/25 00:12:34;;;;;;;31.15;11.32;;;;;;;6.21;100.00;101266.13;6212660;23;20012;-86
2022/12/25 00:14:59;;;;;;;32.10;11.90;;;;;;;6.21;100.00;101263.47;6211610;23;20005;-86
2022/12/25 00:17:24;;;;;;;28.38;11.65;;;;;;;6.30;100.00;101285.31;6206881;23;20696;-87
2022/12/25 00:19:49;;;;;;;31.98;10.85;;;;;;;6.29;100.00;101279.16;6207213;23;20019;-87
2022/12/25 00:22:15;;;;;;;30.65;11.93;;;;;;;6.34;100.00;101281.66;6204913;23;20075;-87
2022/12/25 00:24:40;;;;;;;35.60;12.88;;;;;;;6.40;100.00;101286.81;6204921;23;20058;-87
2022/12/25 00:27:05;;;;;;;30.25;12.00;;;;;;;6.45;100.00;101275.19;6203993;23;20015;-87
2022/12/25 00:29:31;;;;;;;29.02;11.07;;;;;;;6.45;100.00;101274.34;6206564;23;20019;-86
2022/12/25 00:31:56;;;;;;;29.35;11.43;;;;;;;6.42;100.00;101262.03;6206194;23;20426;-86
2022/12/25 00:34:22;;;;;;;26.42;12.52;;;;;;;6.53;100.00;101268.84;6202149;23;20080;-86
2022/12/25 00:36:49;;;;;;;31.98;11.02;;;;;;;6.56;100.00;101277.53;6202293;23;20091;-86
2022/12/25 00:39:15;;;;;;;26.73;11.57;;;;;;;6.59;100.00;101271.31;6202370;23;20504;-86
2022/12/25 00:44:24;;;;;;;30.73;11.10;;;;;;;6.59;100.00;101271.31;6231662;22;20082;-86
2022/12/25 00:46:49;;;;;;;26.38;10.55;;;;;;;6.61;100.00;101269.50;6233014;22;20085;-86
2022/12/25 00:49:14;;;;;;;31.42;11.30;;;;;;;6.60;100.00;101265.09;6215728;22;20415;-86
2022/12/25 00:51:40;;;;;;;31.10;10.98;;;;;;;6.58;100.00;101251.06;6207314;23;20023;-86
2022/12/25 00:54:05;;;;;;;36.20;11.10;;;;;;;6.62;100.00;101268.56;6221792;23;20080;-86
2022/12/25 00:56:30;;;;;;;26.20;10.88;;;;;;;6.69;100.00;101263.06;6205724;23;20004;-86
2022/12/25 00:58:56;;;;;;;30.05;11.43;;;;;;;6.67;100.00;101256.09;6207756;23;20004;-86
2022/12/25 01:01:21;;;;;;;34.28;11.85;;;;;;;6.66;100.00;101257.00;6207312;23;20055;-86
2022/12/25 01:03:46;;;;;;;27.35;10.73;;;;;;;6.59;100.00;101250.13;6206629;23;20035;-86
2022/12/25 01:06:12;;;;;;;26.08;11.30;;;;;;;6.60;100.00;101242.16;6204298;23;20092;-86
2022/12/25 01:11:31;;;;;;;26.35;10.90;;;;;;;6.58;100.00;101249.28;6184271;23;20086;-86
2022/12/25 01:13:57;;;;;;;33.75;10.68;;;;;;;6.51;100.00;101237.13;6206446;23;20004;-86
2022/12/25 01:16:22;;;;;;;25.20;10.65;;;;;;;6.49;100.00;101244.25;6206531;23;20011;-86
2022/12/25 01:18:47;;;;;;;31.15;12.23;;;;;;;6.43;100.00;101253.19;6207450;23;20004;-86
2022/12/25 01:21:15;;;;;;;27.98;10.77;;;;;;;6.40;100.00;101252.44;6220466;23;20016;-83
2022/12/25 01:23:42;;;;;;;31.67;12.05;;;;;;;6.41;100.00;101247.09;6218689;23;20000;-86
2022/12/25 01:26:10;;;;;;;32.47;11.65;;;;;;;6.43;100.00;101253.19;6218199;23;20387;-86
2022/12/25 01:28:36;;;;;;;31.50;11.60;;;;;;;6.41;100.00;101257.66;6216483;23;20007;-83
2022/12/25 01:31:02;;;;;;;29.10;11.93;;;;;;;6.39;100.00;101251.53;6216717;23;20038;-84
2022/12/25 01:33:27;;;;;;;31.90;11.75;;;;;;;6.30;100.00;101248.28;6206692;23;20055;-86
2022/12/25 01:35:53;;;;;;;34.25;11.93;;;;;;;6.32;100.00;101273.78;6206451;23;20028;-84
2022/12/25 01:38:18;;;;;;;29.42;12.20;;;;;;;6.33;100.00;101269.38;6203599;23;20015;-85
2022/12/25 01:40:43;;;;;;;31.27;11.60;;;;;;;6.38;100.00;101267.47;6205808;23;20426;-84
2022/12/25 01:43:22;;;;;;;32.10;11.45;;;;;;;6.39;100.00;101270.06;6206705;23;20083;-85
2022/12/25 01:45:48;;;;;;;32.17;12.65;;;;;;;6.41;100.00;101268.25;6207505;23;20415;-85
2022/12/25 01:48:19;;;;;;;31.95;12.63;;;;;;;6.46;100.00;101273.41;6207510;23;20035;-84
2022/12/25 01:50:52;;;;;;;23.77;12.13;;;;;;;6.39;100.00;101269.19;6208077;23;20008;-84
2022/12/25 01:53:18;;;;;;;25.38;11.73;;;;;;;6.43;100.00;101269.06;6202995;23;20337;-85
2022/12/25 01:55:46;;;;;;;32.08;12.70;;;;;;;6.49;100.00;101292.72;6205407;23;20004;-84
2022/12/25 01:58:12;;;;;;;27.70;13.07;;;;;;;6.52;100.00;101290.88;6206374;23;20004;-85
2022/12/25 02:00:37;;;;;;;27.05;12.80;;;;;;;6.59;100.00;101295.09;6205031;23;20023;-84
2022/12/25 02:03:03;;;;;;;29.02;12.32;;;;;;;6.62;100.00;101295.88;6207865;23;20000;-84
2022/12/25 02:05:31;;;;;;;22.02;11.95;;;;;;;6.63;100.00;101294.09;6203827;23;20013;-85
2022/12/25 02:08:00;;;;;;;28.23;12.60;;;;;;;6.68;100.00;101297.50;6206149;23;20008;-84
2022/12/25 02:10:25;;;;;;;26.60;12.30;;;;;;;6.68;100.00;101297.50;6205043;23;20020;-84
2022/12/25 02:12:51;;;;;;;28.17;12.95;;;;;;;6.69;100.00;101305.41;6204256;23;20004;-85
2022/12/25 02:15:20;;;;;;;34.30;13.35;;;;;;;6.70;100.00;101296.56;6204336;23;20008;-85
2022/12/25 02:17:58;;;;;;;30.10;12.40;;;;;;;6.76;100.00;101302.56;6204413;23;20338;-85
2022/12/25 02:20:46;;;;;;;27.58;13.00;;;;;;;6.71;100.00;101300.06;6206229;23;20698;-83
2022/12/25 02:23:26;;;;;;;28.20;12.50;;;;;;;6.72;100.00;101302.66;6206913;23;20325;-85
2022/12/25 02:26:29;;;;;;;28.58;13.00;;;;;;;6.72;100.00;101307.06;6204875;23;20487;-85
2022/12/25 02:29:08;;;;;;;27.27;12.48;;;;;;;6.69;100.00;101315.13;6203770;23;20009;-85
2022/12/25 02:31:49;;;;;;;30.05;12.13;;;;;;;6.65;100.00;101305.53;6225541;22;20015;-85
2022/12/25 02:34:20;;;;;;;30.48;11.88;;;;;;;6.68;100.00;101308.94;6216842;23;20139;-85
2022/12/25 02:36:56;;;;;;;29.48;12.10;;;;;;;6.60;100.00;101288.91;6216784;23;20010;-85
2022/12/25 02:39:56;;;;;;;31.23;12.32;;;;;;;6.67;100.00;101295.75;6213632;23;20009;-85
2022/12/25 03:08:12;;;;;;;26.25;11.30;;;;;;;6.46;100.00;101268.13;6142417;23;20494;-84
2022/12/25 03:13:35;;;;;;;23.98;11.18;;;;;;;6.39;100.00;101248.91;6149979;23;20135;-85
2022/12/25 03:18:44;;;;;;;;;;;;;;;6.33;100.00;101235.88;6149311;23;20020;-85
2022/12/25 03:26:53;;;;;;;21.35;11.88;;;;;;;6.33;100.00;101222.66;6144684;23;19916;-85
2022/12/25 03:32:45;;;;;;;20.88;11.43;;;;;;;6.25;100.00;101208.75;6144130;23;20020;-85
2022/12/25 03:35:32;;;;;;;26.50;11.90;;;;;;;6.25;100.00;101214.06;6128475;23;20005;-84
2022/12/25 04:37:07;;;;;;;24.27;10.55;;;;;;;6.02;100.00;101198.81;6203389;23;19911;-84
2022/12/25 04:39:32;;;;;;;19.45;10.32;;;;;;;5.91;100.00;101185.84;6202976;23;20000;-85
2022/12/25 04:41:59;;;;;;;23.08;10.50;;;;;;;5.90;100.00;101189.41;6203464;23;20059;-84
2022/12/25 04:44:25;;;;;;;20.23;10.32;;;;;;;5.96;100.00;101205.13;6200820;23;20004;-85
2022/12/25 04:46:50;;;;;;;22.65;10.85;;;;;;;5.94;100.00;101209.59;6201723;23;20001;-84
2022/12/25 04:49:15;;;;;;;21.60;11.18;;;;;;;5.85;100.00;101195.69;6202197;23;20005;-84
2022/12/25 04:51:41;;;;;;;24.13;11.60;;;;;;;5.87;100.00;101194.75;6201522;23;20005;-85
2022/12/25 04:54:06;;;;;;;16.60;10.73;;;;;;;5.82;100.00;101172.88;6201257;23;20005;-84
2022/12/25 04:56:32;;;;;;;23.73;11.15;;;;;;;5.86;100.00;101177.19;6201446;23;20011;-85
2022/12/25 04:58:57;;;;;;;20.85;11.10;;;;;;;5.94;100.00;101187.59;6207452;23;20000;-83
2022/12/25 05:01:22;;;;;;;24.90;11.65;;;;;;;6.01;100.00;101190.91;6213639;23;20020;-85
2022/12/25 05:03:48;;;;;;;20.27;11.50;;;;;;;6.02;100.00;101179.44;6215548;23;20009;-85
2022/12/25 05:06:13;;;;;;;26.20;11.90;;;;;;;6.02;100.00;101176.78;6209986;23;20008;-85
2022/12/25 05:08:38;;;;;;;23.60;11.50;;;;;;;6.02;100.00;101176.78;6203232;23;20008;-85
2022/12/25 05:11:09;;;;;;;26.77;12.07;;;;;;;6.02;100.00;101169.75;6205114;23;20434;-85
2022/12/25 05:13:35;;;;;;;24.13;11.68;;;;;;;6.08;100.00;101169.56;6203314;23;20008;-84
2022/12/25 05:16:04;;;;;;;21.00;12.23;;;;;;;6.14;100.00;101163.25;6203723;23;20736;-85
2022/12/25 05:18:30;;;;;;;25.13;12.00;;;;;;;6.17;100.00;101168.47;6202154;23;20031;-85
2022/12/25 05:20:55;;;;;;;25.08;11.85;;;;;;;6.22;100.00;101171.84;6218295;23;20012;-85
2022/12/25 05:23:21;;;;;;;22.20;10.60;;;;;;;6.25;100.00;101161.19;6222672;23;20019;-84
2022/12/25 05:25:46;;;;;;;21.63;10.48;;;;;;;6.27;100.00;101156.75;6216705;23;20005;-84
2022/12/25 05:28:12;;;;;;;19.98;10.32;;;;;;;6.36;100.00;101159.13;6206523;23;20492;-85
2022/12/25 05:30:37;;;;;;;20.75;9.77;;;;;;;6.39;100.00;101155.50;6205610;23;20004;-85
2022/12/25 05:33:03;;;;;;;20.23;10.18;;;;;;;6.42;100.00;101136.91;6204105;23;20004;-85
2022/12/25 05:35:28;;;;;;;20.13;10.07;;;;;;;6.40;100.00;101120.25;6191536;23;20108;-85
2022/12/25 05:37:53;;;;;;;19.60;9.43;;;;;;;6.43;100.00;101115.69;6210288;23;20671;-85
2022/12/25 05:40:18;;;;;;;18.52;8.95;;;;;;;6.47;100.00;101117.34;6216016;23;20013;-85
2022/12/25 05:42:44;;;;;;;14.88;8.85;;;;;;;6.50;100.00;101129.63;6215829;23;20392;-85
2022/12/25 05:45:10;;;;;;;17.15;8.85;;;;;;;6.54;100.00;101128.63;6213949;23;20079;-85
2022/12/25 05:47:35;;;;;;;15.02;8.45;;;;;;;6.56;100.00;101142.66;6209136;23;20005;-86
2022/12/25 05:50:00;;;;;;;12.10;7.68;;;;;;;6.60;100.00;101140.78;6207838;23;20003;-85
2022/12/25 05:52:31;;;;;;;11.73;7.85;;;;;;;6.54;100.00;101135.69;6206518;23;20005;-85
2022/12/25 05:54:56;;;;;;;13.73;7.68;;;;;;;6.60;100.00;101132.84;6208778;23;20148;-85
2022/12/25 05:57:21;;;;;;;16.00;8.20;;;;;;;6.62;100.00;101129.25;6208846;23;20075;-86
2022/12/25 05:59:46;;;;;;;17.90;7.57;;;;;;;6.57;100.00;101125.91;6208501;23;20468;-85
2022/12/25 06:02:12;;;;;;;13.80;7.50;;;;;;;6.62;100.00;101126.63;6206747;23;20013;-85
2022/12/25 06:04:37;;;;;;;15.38;6.82;;;;;;;6.60;100.00;101122.28;6207185;23;20561;-86
2022/12/25 06:07:02;;;;;;;11.90;6.70;;;;;;;6.59;100.00;101117.91;6206935;23;20035;-86
2022/12/25 06:09:28;;;;;;;15.57;7.53;;;;;;;6.66;100.00;101124.75;6204538;23;20005;-86
2022/12/25 06:11:53;;;;;;;12.18;6.80;;;;;;;6.69;100.00;101116.72;6234326;23;20040;-86
2022/12/25 06:14:18;;;;;;;12.90;6.82;;;;;;;6.67;100.00;101103.53;6234860;23;20534;-87
2022/12/25 06:16:43;;;;;;;10.98;6.72;;;;;;;6.69;100.00;101100.84;6237391;23;20011;-87
2022/12/25 06:19:09;;;;;;;13.30;7.30;;;;;;;6.65;100.00;101092.16;6236781;23;20023;-87
2022/12/25 06:21:34;;;;;;;17.05;7.63;;;;;;;6.67;100.00;101097.38;6235636;23;20012;-86
2022/12/25 06:24:00;;;;;;;15.05;7.93;;;;;;;6.66;100.00;101088.56;6237181;23;20072;-86
2022/12/25 06:26:25;;;;;;;13.40;7.15;;;;;;;6.67;100.00;101090.31;6237442;23;20486;-86
2022/12/25 06:28:51;;;;;;;11.68;7.15;;;;;;;6.65;100.00;101080.69;6236097;23;20075;-86
2022/12/25 06:31:20;;;;;;;15.15;7.78;;;;;;;6.73;100.00;101100.72;6208093;23;20069;-86
2022/12/25 06:33:46;;;;;;;13.75;7.15;;;;;;;6.63;100.00;101093.09;6208269;23;20012;-86
2022/12/25 06:36:15;;;;;;;13.30;7.53;;;;;;;6.72;100.00;101103.38;6237701;23;20024;-86
2022/12/25 06:38:40;;;;;;;12.60;7.38;;;;;;;6.74;100.00;101096.28;6235404;23;20136;-86
2022/12/25 06:41:13;;;;;;;14.82;7.32;;;;;;;6.73;100.00;101097.22;6234922;23;20318;-86
2022/12/25 06:43:39;;;;;;;14.88;7.95;;;;;;;6.72;100.00;101067.22;6233439;23;20019;-86
2022/12/25 06:46:10;;;;;;;13.15;7.72;;;;;;;6.76;100.00;101059.19;6235095;23;20088;-86
2022/12/25 06:48:37;;;;;;;17.02;8.05;;;;;;;6.74;100.00;101053.97;6234602;23;20039;-86
2022/12/25 06:51:04;;;;;;;15.38;8.02;;;;;;;6.72;100.00;101039.91;6234934;23;20014;-86
2022/12/25 06:53:30;;;;;;;12.25;7.53;;;;;;;6.76;100.00;101040.66;6234011;23;20008;-85
2022/12/25 06:56:06;;;;;;;14.38;7.72;;;;;;;6.77;100.00;101026.53;6234182;23;20563;-88
2022/12/25 06:58:31;;;;;;;12.73;7.40;;;;;;;6.75;100.00;101018.66;6233494;23;20007;-89
2022/12/25 07:00:57;;;;;;;13.05;7.10;;;;;;;6.68;100.00;101003.88;6235710;23;20664;-88
2022/12/25 07:03:26;;;;;;;12.70;6.63;;;;;;;6.68;100.00;101015.31;6233883;23;20008;-88
2022/12/25 07:05:51;;;;;;;14.40;7.00;;;;;;;6.68;100.00;101023.25;6234117;23;20016;-88
2022/12/25 07:08:16;;;;;;;13.70;7.05;;;;;;;6.71;100.00;101025.81;6233593;23;20000;-88
2022/12/25 07:10:42;;;;;;;13.23;6.97;;;;;;;6.69;100.00;101017.06;6233188;23;20109;-88
2022/12/25 07:13:07;;;;;;;11.20;6.53;;;;;;;6.69;100.00;101017.06;6233888;23;20010;-88
2022/12/25 07:15:32;;;;;;;13.70;6.53;;;;;;;6.70;100.00;101020.59;6234271;23;20084;-86
2022/12/25 07:17:58;;;;;;;13.57;6.90;;;;;;;6.69;100.00;101018.84;6234198;23;20265;-89
2022/12/25 07:20:24;;;;;;;12.65;6.20;;;;;;;6.66;100.00;101032.16;6252679;23;20508;-88
2022/12/25 07:22:49;;;;;;;12.25;6.40;;;;;;;6.60;100.00;101030.56;6262553;23;20018;-89
2022/12/25 07:25:14;;;;;;;11.65;6.18;;;;;;;6.57;100.00;101029.81;6234361;23;20006;-89
2022/12/25 07:27:40;;;;;;;12.50;6.15;;;;;;;6.57;100.00;101038.63;6239275;23;20358;-89
2022/12/25 07:30:06;;;;;;;11.95;6.00;;;;;;;6.54;100.00;101048.41;6238225;23;20000;-89
2022/12/25 07:32:32;;;;;;;15.35;7.15;;;;;;;6.52;100.00;101053.78;6233426;23;20452;-87
2022/12/25 07:34:57;;;;;;;15.82;7.28;;;;;;;6.57;100.00;101057.13;6239213;23;20000;-89
2022/12/25 07:37:25;;;;;;;12.90;6.97;;;;;;;6.47;100.00;101050.38;6237448;23;20008;-89
2022/12/25 07:39:52;;;;;;;12.80;7.00;;;;;;;6.52;100.00;101056.41;6210882;23;20067;-90
2022/12/25 07:42:17;;;;;;;13.02;6.63;;;;;;;6.55;100.00;101058.09;6234447;23;20008;-86
2022/12/25 07:44:42;;;;;;;11.30;6.93;;;;;;;6.47;100.00;101024.78;6236670;23;20417;-87
2022/12/25 07:47:07;;;;;;;13.23;7.18;;;;;;;6.53;100.00;101030.84;6237021;23;20079;-87
2022/12/25 07:49:33;;;;;;;12.65;7.25;;;;;;;6.50;100.00;101039.72;6236073;23;20004;-87
2022/12/25 07:51:58;;;;;;;13.13;7.03;;;;;;;6.50;100.00;101037.06;6235312;23;20040;-88
2022/12/25 07:54:23;;;;;;;12.32;6.97;;;;;;;6.43;100.00;101027.59;6207823;23;20062;-87
2022/12/25 07:56:51;;;;;;;12.70;7.57;;;;;;;6.47;100.00;101039.78;6236551;23;20358;-86
2022/12/25 07:59:16;;;;;;;13.00;7.85;;;;;;;6.53;100.00;101046.69;6235576;23;20028;-87
2022/12/25 08:01:41;;;;;;;13.82;7.47;;;;;;;6.51;100.00;101059.09;6244984;23;20342;-88
2022/12/25 08:04:08;;;;;;;20.17;8.02;;;;;;;6.49;100.00;101075.00;6240828;23;20764;-86
2022/12/25 08:06:35;;;;;;;18.33;8.85;;;;;;;6.54;100.00;101088.94;6217567;23;20004;-87
2022/12/25 08:09:09;;;;;;;19.15;8.48;;;;;;;6.56;100.00;101087.09;6257666;23;20003;-88
2022/12/25 08:11:36;;;;;;;14.52;8.45;;;;;;;6.58;100.00;101085.31;6252670;23;20012;-87
2022/12/25 08:14:05;;;;;;;17.77;9.32;;;;;;;6.60;100.00;101093.19;6247180;23;20020;-87
2022/12/25 08:16:30;;;;;;;13.43;8.88;;;;;;;6.62;100.00;101099.31;6248482;23;20087;-89
2022/12/25 08:18:55;;;;;;;13.48;7.80;;;;;;;6.60;100.00;101104.63;6215223;23;20003;-87
2022/12/25 08:21:21;;;;;;;13.30;8.70;;;;;;;6.58;100.00;101101.16;6236597;23;20003;-87
2022/12/25 08:23:47;;;;;;;14.88;8.45;;;;;;;6.64;100.00;101121.25;6238610;23;20429;-88
2022/12/25 08:26:18;;;;;;;11.95;8.02;;;;;;;6.70;100.00;101110.53;6242255;23;20000;-89
2022/12/25 08:28:43;;;;;;;13.85;8.43;;;;;;;6.75;100.00;101103.31;6238533;23;20001;-89
2022/12/25 08:31:15;;;;;;;13.95;8.20;;;;;;;6.75;100.00;101092.72;6209339;23;20023;-88
2022/12/25 08:33:41;;;;;;;13.90;8.65;;;;;;;6.79;100.00;101088.19;6208995;23;20000;-89
2022/12/25 08:36:08;;;;;;;14.43;8.30;;;;;;;6.80;100.00;101082.84;6236553;23;20007;-90
2022/12/25 08:38:34;;;;;;;11.55;7.40;;;;;;;6.82;100.00;101104.00;6237746;23;20019;-88
2022/12/25 08:40:59;;;;;;;16.35;8.48;;;;;;;6.82;100.00;101094.25;6238275;23;20004;-86
2022/12/25 08:43:24;;;;;;;22.25;8.57;;;;;;;6.81;100.00;101103.09;6234860;23;20031;-86
2022/12/25 08:45:50;;;;;;;14.98;8.57;;;;;;;6.80;100.00;101132.25;6234291;23;20009;-86
2022/12/25 08:48:15;;;;;;;15.30;8.90;;;;;;;6.79;100.00;101133.19;6232978;23;20004;-86
2022/12/25 08:50:49;;;;;;;17.05;9.20;;;;;;;6.78;100.00;101129.66;6233288;23;20004;-86
2022/12/25 08:53:15;;;;;;;16.27;10.00;;;;;;;6.74;100.00;101125.38;6232823;23;20004;-86
2022/12/25 08:55:40;;;;;;;17.45;9.45;;;;;;;6.71;100.00;101107.81;6234596;23;20441;-87
2022/12/25 08:58:05;;;;;;;18.67;10.02;;;;;;;6.72;100.00;101100.75;6207025;23;20003;-87
2022/12/25 09:00:31;;;;;;;15.02;9.30;;;;;;;6.76;100.00;101104.16;6236246;23;20011;-87
2022/12/25 09:02:56;;;;;;;14.52;9.13;;;;;;;6.73;100.00;101095.44;6235771;23;20012;-86
2022/12/25 09:05:22;;;;;;;14.70;8.65;;;;;;;6.70;100.00;101079.63;6237120;23;20000;-87
2022/12/25 09:07:47;;;;;;;21.70;8.57;;;;;;;6.68;100.00;101062.94;6242709;23;20004;-86
2022/12/25 09:10:12;;;;;;;12.43;7.88;;;;;;;6.68;100.00;101054.13;6234098;23;20341;-86
2022/12/25 09:12:38;;;;;;;16.25;8.70;;;;;;;6.76;100.00;101061.84;6235690;23;20012;-86
2022/12/25 09:15:04;;;;;;;12.60;8.15;;;;;;;6.76;100.00;101065.34;6238403;23;20057;-86
2022/12/25 09:17:30;;;;;;;15.88;8.57;;;;;;;6.77;100.00;101080.28;6236219;23;20015;-86
2022/12/25 09:19:55;;;;;;;17.77;9.90;;;;;;;6.84;100.00;101100.38;6235508;23;20004;-86
2022/12/25 09:22:20;;;;;;;14.05;9.02;;;;;;;6.79;100.00;101093.50;6237599;23;20008;-86
2022/12/25 09:24:45;;;;;;;17.52;8.65;;;;;;;6.81;100.00;101089.88;6237768;23;20010;-87
2022/12/25 09:27:11;;;;;;;18.00;8.82;;;;;;;6.86;100.00;101082.69;6235202;23;20077;-86
2022/12/25 09:29:37;;;;;;;15.95;8.27;;;;;;;6.87;100.00;101097.63;6239649;23;20012;-86
2022/12/25 09:32:03;;;;;;;11.68;7.93;;;;;;;6.85;100.00;101083.56;6244110;23;20034;-87
2022/12/25 09:34:29;;;;;;;14.88;8.48;;;;;;;6.87;100.00;101087.03;6253458;23;20028;-87
2022/12/25 09:36:54;;;;;;;14.98;8.43;;;;;;;6.83;100.00;101063.38;6255472;23;20008;-87
2022/12/25 09:39:19;;;;;;;13.82;8.52;;;;;;;6.83;100.00;101060.75;6248112;23;20045;-87
2022/12/25 09:41:50;;;;;;;16.90;8.93;;;;;;;6.86;100.00;101063.28;6246611;23;20369;-86
2022/12/25 09:44:21;;;;;;;15.43;8.35;;;;;;;6.85;100.00;101048.31;6238870;23;20027;-87
2022/12/25 09:46:52;;;;;;;12.65;8.75;;;;;;;6.84;100.00;101051.88;6238782;23;20000;-88
2022/12/25 09:49:25;;;;;;;15.48;8.85;;;;;;;6.76;100.00;101056.53;6237078;23;20517;-91
2022/12/25 09:52:00;;;;;;;14.10;9.43;;;;;;;6.85;100.00;101062.41;6236341;23;20057;-86
2022/12/25 09:54:43;;;;;;;15.80;8.93;;;;;;;6.85;100.00;101059.75;6234386;23;20193;-85
2022/12/25 09:57:11;;;;;;;19.42;10.07;;;;;;;6.87;100.00;101054.44;6236559;23;20004;-85
2022/12/25 09:59:37;;;;;;;17.58;9.25;;;;;;;6.86;100.00;101045.63;6235751;23;20414;-85
2022/12/25 10:02:13;;;;;;;14.38;8.95;;;;;;;6.86;100.00;101048.28;6208980;23;20031;-85
2022/12/25 10:05:05;;;;;;;15.07;9.40;;;;;;;6.88;100.00;101046.44;6236260;23;20095;-89
2022/12/25 10:07:42;;;;;;;15.35;9.63;;;;;;;6.89;100.00;101032.28;6236368;23;20011;-89
2022/12/25 10:10:24;;;;;;;18.90;10.55;;;;;;;6.92;100.00;101033.97;6234240;23;20016;-84
2022/12/25 10:13:14;;;;;;;16.00;10.38;;;;;;;6.96;100.00;101044.41;6236485;23;20008;-86
2022/12/25 10:15:57;;;;;;;16.75;10.55;;;;;;;6.99;100.00;101032.88;6233863;23;20008;-84
2022/12/25 10:18:28;;;;;;;20.15;12.05;;;;;;;6.98;100.00;101032.00;6234797;23;20091;-84
2022/12/25 10:20:56;;;;;;;20.35;12.70;;;;;;;6.98;100.00;101026.72;6258589;23;20064;-85
2022/12/25 10:23:27;;;;;;;18.55;11.88;;;;;;;6.98;100.00;101021.41;6247454;23;20015;-85
2022/12/25 10:25:54;;;;;;;21.77;11.68;;;;;;;7.03;100.00;101031.84;6250187;23;20007;-85
2022/12/25 10:28:25;;;;;;;19.52;12.23;;;;;;;7.03;100.00;101028.34;6242637;23;20062;-85
2022/12/25 10:30:52;;;;;;;18.92;12.38;;;;;;;7.01;100.00;101012.50;6242979;23;20011;-85
2022/12/25 10:33:17;;;;;;;18.73;11.77;;;;;;;6.96;100.00;101002.06;6214025;23;20066;-84
2022/12/25 10:35:43;;;;;;;19.52;12.35;;;;;;;6.96;100.00;101001.19;6236663;23;20000;-85
2022/12/25 10:38:15;;;;;;;17.33;12.00;;;;;;;7.02;100.00;101010.72;6238972;23;20011;-85
2022/12/25 10:41:12;;;;;;;21.43;12.20;;;;;;;7.04;100.00;101024.78;6213534;23;20015;-85
2022/12/25 10:43:44;;;;;;;19.58;11.93;;;;;;;6.97;100.00;101022.31;6237563;23;20238;-85
2022/12/25 10:46:11;;;;;;;17.83;12.30;;;;;;;7.03;100.00;101018.63;6237633;23;20059;-85
2022/12/25 10:48:41;;;;;;;22.40;13.25;;;;;;;6.97;100.00;101000.28;6236869;23;20014;-84
2022/12/25 10:51:07;;;;;;;20.35;13.50;;;;;;;6.97;100.00;100992.34;6236102;23;20007;-85
2022/12/25 10:53:39;;;;;;;23.55;14.05;;;;;;;6.99;100.00;100991.38;6235297;23;20787;-86
2022/12/25 10:56:06;;;;;;;21.88;15.00;;;;;;;6.98;100.00;100971.13;6235650;23;20004;-85
2022/12/25 10:58:32;;;;;;;21.85;13.57;;;;;;;6.99;100.00;100964.91;6235026;23;20243;-86
2022/12/25 11:01:02;;;;;;;24.42;13.73;;;;;;;6.99;100.00;100956.97;6236086;23;20004;-89
2022/12/25 11:03:31;;;;;;;23.00;13.60;;;;;;;6.97;100.00;100937.63;6234000;23;20015;-85
2022/12/25 11:05:56;;;;;;;17.88;12.52;;;;;;;7.02;100.00;100944.53;6235163;23;20134;-83
2022/12/25 11:08:25;;;;;;;19.55;12.77;;;;;;;7.02;100.00;100952.50;6236069;23;20442;-87
2022/12/25 11:11:04;;;;;;;23.48;12.80;;;;;;;7.03;100.00;100963.03;6237086;23;20023;-89
2022/12/25 11:13:32;;;;;;;22.10;13.57;;;;;;;7.03;100.00;100965.69;6235768;23;20334;-88
2022/12/25 11:16:10;;;;;;;23.67;14.73;;;;;;;7.08;100.00;100968.16;6208590;23;20098;-86
2022/12/25 11:18:46;;;;;;;24.00;14.32;;;;;;;7.11;100.00;100954.84;6208043;23;20031;-84
2022/12/25 11:21:20;;;;;;;24.08;14.90;;;;;;;7.10;100.00;100950.44;6233546;23;20516;-86
2022/12/25 11:23:48;;;;;;;22.88;14.40;;;;;;;7.12;100.00;100944.19;6234031;23;20008;-85
2022/12/25 11:26:14;;;;;;;25.75;14.43;;;;;;;7.16;100.00;100937.00;6234579;23;20337;-85
2022/12/25 11:28:42;;;;;;;25.55;13.93;;;;;;;7.22;100.00;100921.75;6235361;23;20042;-86
2022/12/25 11:31:19;;;;;;;21.27;14.05;;;;;;;7.23;100.00;100912.03;6233400;23;20329;-85
2022/12/25 11:33:53;;;;;;;24.20;14.93;;;;;;;7.29;100.00;100930.34;6234817;23;20026;-86
2022/12/25 11:36:36;;;;;;;19.95;15.05;;;;;;;7.28;100.00;100925.13;6233468;23;20142;-84
2022/12/25 11:39:20;;;;;;;27.65;16.73;;;;;;;7.26;100.00;100916.34;6207428;23;20007;-86
2022/12/25 11:41:47;;;;;;;26.63;16.58;;;;;;;7.20;100.00;100897.13;6234394;23;20004;-86
2022/12/25 11:44:39;;;;;;;30.42;17.45;;;;;;;7.33;100.00;100907.28;6235206;23;20004;-90
2022/12/25 11:47:16;;;;;;;27.30;18.58;;;;;;;7.27;100.00;100899.53;6235577;23;20008;-87
2022/12/25 11:49:52;;;;;;;26.15;17.83;;;;;;;7.30;100.00;100910.03;6236749;23;20004;-88
2022/12/25 11:52:19;;;;;;;25.45;18.85;;;;;;;7.28;100.00;100920.69;6236080;23;20004;-87
2022/12/25 11:54:53;;;;;;;27.35;19.30;;;;;;;7.27;100.00;100912.78;6241804;23;20035;-87
2022/12/25 11:57:22;;;;;;;26.40;18.52;;;;;;;7.26;100.00;100903.97;6251869;23;20031;-88
2022/12/25 12:00:08;;;;;;;31.05;19.88;;;;;;;7.22;100.00;100894.41;6252454;22;20072;-87
2022/12/25 12:02:43;;;;;;;25.30;18.80;;;;;;;7.26;100.00;100892.53;6236857;23;20423;-86
2022/12/25 12:05:34;;;;;;;30.60;21.13;;;;;;;7.26;100.00;100895.19;6254374;23;20064;-86
2022/12/25 12:08:02;;;;;;;27.80;21.23;;;;;;;7.20;100.00;100883.91;6233853;23;20057;-86
2022/12/25 12:10:41;;;;;;;32.40;22.05;;;;;;;7.23;100.00;100891.75;6232273;23;20020;-86
2022/12/25 12:13:42;;;;;;;34.78;23.40;;;;;;;7.23;100.00;100894.38;6235013;23;20004;-86
2022/12/25 12:16:08;;;;;;;29.55;23.33;;;;;;;7.19;100.00;100889.22;6209159;23;20047;-85
2022/12/25 12:18:35;;;;;;;32.13;23.42;;;;;;;7.18;100.00;100883.06;6235827;23;20414;-87
2022/12/25 12:21:09;;;;;;;33.60;24.65;;;;;;;7.23;100.00;100882.91;6235092;23;20082;-85
2022/12/25 12:24:05;;;;;;;30.55;25.40;;;;;;;7.23;100.00;100867.91;6234299;23;20068;-87
2022/12/25 12:26:36;;;;;;;38.17;26.48;;;;;;;7.20;100.00;100859.22;6234749;23;20495;-86
2022/12/25 12:29:04;;;;;;;36.35;25.77;;;;;;;7.25;100.00;100849.31;6235171;23;20077;-87
2022/12/25 12:31:41;;;;;;;36.60;25.15;;;;;;;7.28;100.00;100862.44;6233349;23;20007;-86
2022/12/25 12:34:21;;;;;;;36.85;24.95;;;;;;;7.30;100.00;100857.09;6234827;23;20033;-84
2022/12/25 12:36:48;;;;;;;35.97;24.67;;;;;;;7.26;100.00;100848.38;6233394;23;20078;-83
2022/12/25 12:39:25;;;;;;;38.88;24.95;;;;;;;7.34;100.00;100842.81;6232537;23;20087;-85
2022/12/25 12:41:51;;;;;;;32.42;23.52;;;;;;;7.30;100.00;100831.47;6233162;23;20004;-85
2022/12/25 12:44:17;;;;;;;31.25;22.52;;;;;;;7.30;100.00;100820.00;6233477;23;20019;-84
2022/12/25 12:46:54;;;;;;;33.00;22.95;;;;;;;7.28;100.00;100830.69;6235605;23;20052;-83
2022/12/25 12:49:25;;;;;;;34.90;21.42;;;;;;;7.40;100.00;100848.75;6236001;23;20076;-84
2022/12/25 12:52:04;;;;;;;36.08;22.05;;;;;;;7.45;100.00;100849.44;6236130;23;20010;-82
2022/12/25 12:54:29;;;;;;;40.58;24.42;;;;;;;7.48;100.00;100848.44;6237612;23;20014;-83
2022/12/25 12:56:56;;;;;;;35.22;22.45;;;;;;;7.54;100.00;100850.00;6238449;23;20082;-84
2022/12/25 12:59:22;;;;;;;36.15;22.88;;;;;;;7.49;100.00;100844.88;6241457;23;20567;-83
2022/12/25 13:02:28;;;;;;;32.83;22.35;;;;;;;7.57;100.00;100850.75;6237569;23;20054;-84
2022/12/25 13:05:05;;;;;;;33.80;23.63;;;;;;;7.57;100.00;100839.31;6242441;23;20018;-86